ARG1425 SARI-SASJ
Flight info
| Callsign | ARG1425 |
|---|---|
| Flight time | 1h 44m |
| Altitude | 36000 |
| Route | COSTA3C COSTA DCT ESDIM UM548 VAS UM789 KOVAT KOVAT2U |
| Aircraft | B738/M-SDE2E3FGHIRWXY/LB1 |
Departure
| Time | 2026-04-20 18:49 |
|---|---|
| Airport | Cataratas Del Iguazú International Airport (SARI) |
Arrival
| Time | 2026-04-20 20:33 |
|---|---|
| Airport | Gobernador Horacio Guzman International Airport (SASJ) |
| Time | Latitude | Longitude | Altitude | Speed | Heading |
|---|---|---|---|---|---|
| 2026-04-20 18:14 | -25.73212 | -54.47709 | 926 ft | 0 kts | 26° |
| 2026-04-20 18:40 | -25.73220 | -54.47714 | 926 ft | 4 kts | 20° |
| 2026-04-20 18:40 | -25.73245 | -54.47717 | 926 ft | 4 kts | 343° |
| 2026-04-20 18:40 | -25.73266 | -54.47703 | 927 ft | 4 kts | 305° |
| 2026-04-20 18:41 | -25.73273 | -54.47690 | 926 ft | 1 kts | 296° |
| 2026-04-20 18:44 | -25.73271 | -54.47693 | 928 ft | 2 kts | 296° |
| 2026-04-20 18:44 | -25.73261 | -54.47717 | 926 ft | 6 kts | 296° |
| 2026-04-20 18:44 | -25.73237 | -54.47770 | 929 ft | 10 kts | 296° |
| 2026-04-20 18:44 | -25.73221 | -54.47853 | 927 ft | 13 kts | 265° |
| 2026-04-20 18:45 | -25.73228 | -54.47952 | 929 ft | 13 kts | 266° |
| 2026-04-20 18:45 | -25.73236 | -54.48049 | 926 ft | 12 kts | 264° |
| 2026-04-20 18:45 | -25.73244 | -54.48143 | 930 ft | 12 kts | 264° |
| 2026-04-20 18:45 | -25.73252 | -54.48235 | 927 ft | 12 kts | 265° |
| 2026-04-20 18:46 | -25.73259 | -54.48325 | 928 ft | 12 kts | 263° |
| 2026-04-20 18:46 | -25.73266 | -54.48412 | 927 ft | 11 kts | 271° |
| 2026-04-20 18:46 | -25.73247 | -54.48494 | 926 ft | 11 kts | 290° |
| 2026-04-20 18:46 | -25.73217 | -54.48569 | 925 ft | 11 kts | 295° |
| 2026-04-20 18:47 | -25.73186 | -54.48642 | 926 ft | 11 kts | 295° |
| 2026-04-20 18:47 | -25.73147 | -54.48724 | 929 ft | 13 kts | 311° |
| 2026-04-20 18:47 | -25.73092 | -54.48790 | 925 ft | 9 kts | 281° |
| 2026-04-20 18:47 | -25.73124 | -54.48800 | 925 ft | 6 kts | 124° |
| 2026-04-20 18:48 | -25.73139 | -54.48755 | 925 ft | 6 kts | 113° |
| 2026-04-20 18:48 | -25.73165 | -54.48694 | 925 ft | 25 kts | 115° |
| 2026-04-20 18:48 | -25.73374 | -54.48193 | 929 ft | 115 kts | 115° |
| 2026-04-20 18:48 | -25.73827 | -54.47120 | 962 ft | 187 kts | 115° |
| 2026-04-20 18:49 | -25.74408 | -54.45770 | 1925 ft | 193 kts | 114° |
| 2026-04-20 18:49 | -25.74944 | -54.44455 | 3363 ft | 184 kts | 113° |
| 2026-04-20 18:49 | -25.75459 | -54.43165 | 4439 ft | 183 kts | 112° |
| 2026-04-20 18:49 | -25.75973 | -54.41882 | 5254 ft | 181 kts | 113° |
| 2026-04-20 18:50 | -25.76498 | -54.40595 | 5978 ft | 183 kts | 112° |
| 2026-04-20 18:50 | -25.77235 | -54.39406 | 6464 ft | 200 kts | 141° |
| 2026-04-20 18:50 | -25.78606 | -54.38816 | 6696 ft | 221 kts | 178° |
| 2026-04-20 18:50 | -25.80131 | -54.39184 | 6951 ft | 236 kts | 213° |
| 2026-04-20 18:51 | -25.81256 | -54.40545 | 7189 ft | 249 kts | 245° |
| 2026-04-20 18:51 | -25.81886 | -54.42383 | 7652 ft | 258 kts | 252° |
| 2026-04-20 18:51 | -25.82499 | -54.44252 | 8491 ft | 255 kts | 250° |
| 2026-04-20 18:51 | -25.83200 | -54.46113 | 8924 ft | 273 kts | 247° |
| 2026-04-20 18:52 | -25.84021 | -54.48074 | 9184 ft | 292 kts | 245° |
| 2026-04-20 18:52 | -25.84933 | -54.50122 | 9770 ft | 299 kts | 245° |
| 2026-04-20 18:52 | -25.85875 | -54.52187 | 10441 ft | 302 kts | 244° |
| 2026-04-20 18:52 | -25.86837 | -54.54279 | 11133 ft | 305 kts | 245° |
| 2026-04-20 18:53 | -25.87757 | -54.56478 | 11348 ft | 325 kts | 255° |
| 2026-04-20 18:53 | -25.87889 | -54.59015 | 11515 ft | 340 kts | 283° |
| 2026-04-20 18:53 | -25.86943 | -54.61459 | 11695 ft | 354 kts | 303° |
| 2026-04-20 18:53 | -25.85585 | -54.63782 | 12130 ft | 362 kts | 304° |
| 2026-04-20 18:54 | -25.84206 | -54.66138 | 12738 ft | 365 kts | 304° |
| 2026-04-20 18:54 | -25.82824 | -54.68516 | 13437 ft | 365 kts | 304° |
| 2026-04-20 18:54 | -25.81447 | -54.70898 | 14107 ft | 368 kts | 304° |
| 2026-04-20 18:54 | -25.80066 | -54.73295 | 14743 ft | 370 kts | 304° |
| 2026-04-20 18:55 | -25.78694 | -54.75684 | 15396 ft | 372 kts | 303° |
| 2026-04-20 18:55 | -25.77301 | -54.78118 | 16024 ft | 375 kts | 303° |
| 2026-04-20 18:55 | -25.75900 | -54.80570 | 16637 ft | 378 kts | 303° |
| 2026-04-20 18:55 | -25.74487 | -54.83044 | 17239 ft | 380 kts | 303° |
| 2026-04-20 18:56 | -25.73066 | -54.85529 | 17840 ft | 382 kts | 303° |
| 2026-04-20 18:56 | -25.72121 | -54.87183 | 18212 ft | 384 kts | 303° |
| 2026-04-20 18:56 | -25.70686 | -54.89692 | 18774 ft | 387 kts | 303° |
| 2026-04-20 18:56 | -25.69238 | -54.92221 | 19349 ft | 389 kts | 303° |
| 2026-04-20 18:57 | -25.67786 | -54.94756 | 19883 ft | 391 kts | 303° |
| 2026-04-20 18:57 | -25.66322 | -54.97310 | 20358 ft | 395 kts | 303° |
| 2026-04-20 18:57 | -25.64847 | -54.99888 | 20860 ft | 397 kts | 303° |
| 2026-04-20 18:57 | -25.63363 | -55.02475 | 21329 ft | 399 kts | 303° |
| 2026-04-20 18:58 | -25.61870 | -55.05076 | 21816 ft | 401 kts | 303° |
| 2026-04-20 18:58 | -25.60368 | -55.07690 | 22283 ft | 403 kts | 303° |
| 2026-04-20 18:58 | -25.58859 | -55.10316 | 22717 ft | 405 kts | 303° |
| 2026-04-20 18:58 | -25.57341 | -55.12958 | 23120 ft | 408 kts | 303° |
| 2026-04-20 18:59 | -25.55814 | -55.15613 | 23577 ft | 409 kts | 303° |
| 2026-04-20 18:59 | -25.54298 | -55.18250 | 23948 ft | 411 kts | 303° |
| 2026-04-20 18:59 | -25.52754 | -55.20930 | 24318 ft | 414 kts | 303° |
| 2026-04-20 18:59 | -25.51360 | -55.23728 | 24646 ft | 417 kts | 291° |
| 2026-04-20 19:00 | -25.50714 | -55.26862 | 24994 ft | 421 kts | 278° |
| 2026-04-20 19:00 | -25.50391 | -55.30093 | 25347 ft | 423 kts | 278° |
| 2026-04-20 19:00 | -25.50054 | -55.33332 | 25667 ft | 426 kts | 278° |
| 2026-04-20 19:00 | -25.49700 | -55.36599 | 25983 ft | 428 kts | 278° |
| 2026-04-20 19:01 | -25.49334 | -55.39875 | 26291 ft | 430 kts | 278° |
| 2026-04-20 19:01 | -25.48960 | -55.43160 | 26623 ft | 431 kts | 278° |
| 2026-04-20 19:01 | -25.48580 | -55.46459 | 26928 ft | 433 kts | 278° |
| 2026-04-20 19:01 | -25.48198 | -55.49771 | 27186 ft | 435 kts | 278° |
| 2026-04-20 19:02 | -25.47812 | -55.53104 | 27459 ft | 437 kts | 277° |
| 2026-04-20 19:02 | -25.47424 | -55.56444 | 27728 ft | 439 kts | 277° |
| 2026-04-20 19:02 | -25.47039 | -55.59760 | 27989 ft | 441 kts | 277° |
| 2026-04-20 19:02 | -25.46647 | -55.63126 | 28249 ft | 442 kts | 277° |
| 2026-04-20 19:03 | -25.46254 | -55.66506 | 28481 ft | 444 kts | 277° |
| 2026-04-20 19:03 | -25.45858 | -55.69915 | 28706 ft | 446 kts | 277° |
| 2026-04-20 19:03 | -25.45471 | -55.73326 | 28919 ft | 448 kts | 276° |
| 2026-04-20 19:03 | -25.45097 | -55.76757 | 29202 ft | 448 kts | 276° |
| 2026-04-20 19:04 | -25.44728 | -55.80169 | 29540 ft | 446 kts | 276° |
| 2026-04-20 19:04 | -25.44361 | -55.83575 | 29875 ft | 445 kts | 275° |
| 2026-04-20 19:04 | -25.43992 | -55.86974 | 30170 ft | 445 kts | 275° |
| 2026-04-20 19:04 | -25.43621 | -55.90369 | 30492 ft | 444 kts | 275° |
| 2026-04-20 19:05 | -25.43250 | -55.93760 | 30842 ft | 443 kts | 275° |
| 2026-04-20 19:05 | -25.42878 | -55.97134 | 31196 ft | 441 kts | 275° |
| 2026-04-20 19:05 | -25.42508 | -56.00496 | 31514 ft | 440 kts | 275° |
| 2026-04-20 19:05 | -25.42137 | -56.03853 | 31835 ft | 439 kts | 275° |
| 2026-04-20 19:06 | -25.41766 | -56.07161 | 32136 ft | 438 kts | 275° |
| 2026-04-20 19:06 | -25.41392 | -56.10506 | 32463 ft | 437 kts | 275° |
| 2026-04-20 19:06 | -25.41022 | -56.13830 | 32824 ft | 435 kts | 275° |
| 2026-04-20 19:06 | -25.40651 | -56.17156 | 33145 ft | 434 kts | 275° |
| 2026-04-20 19:07 | -25.40282 | -56.20463 | 33474 ft | 433 kts | 275° |
| 2026-04-20 19:07 | -25.39911 | -56.23775 | 33759 ft | 433 kts | 275° |
| 2026-04-20 19:07 | -25.39541 | -56.27071 | 34094 ft | 431 kts | 275° |
| 2026-04-20 19:07 | -25.39171 | -56.30354 | 34427 ft | 430 kts | 275° |
| 2026-04-20 19:08 | -25.38801 | -56.33633 | 34758 ft | 428 kts | 275° |
| 2026-04-20 19:08 | -25.38064 | -56.40135 | 35371 ft | 425 kts | 275° |
| 2026-04-20 19:08 | -25.37696 | -56.43379 | 35649 ft | 424 kts | 275° |
| 2026-04-20 19:09 | -25.37330 | -56.46600 | 35946 ft | 422 kts | 275° |
| 2026-04-20 19:09 | -25.36591 | -56.53098 | 35933 ft | 427 kts | 275° |
| 2026-04-20 19:10 | -25.35847 | -56.59594 | 35914 ft | 423 kts | 275° |
| 2026-04-20 19:10 | -25.35091 | -56.66017 | 35930 ft | 420 kts | 275° |
| 2026-04-20 19:11 | -25.34311 | -56.72422 | 35928 ft | 419 kts | 275° |
| 2026-04-20 19:11 | -25.33537 | -56.78758 | 35919 ft | 418 kts | 276° |
| 2026-04-20 19:12 | -25.32757 | -56.85136 | 35930 ft | 418 kts | 276° |
| 2026-04-20 19:12 | -25.31976 | -56.91526 | 35927 ft | 419 kts | 276° |
| 2026-04-20 19:13 | -25.31192 | -56.97922 | 35919 ft | 421 kts | 276° |
| 2026-04-20 19:13 | -25.30409 | -57.04317 | 35912 ft | 423 kts | 276° |
| 2026-04-20 19:14 | -25.29609 | -57.10774 | 35922 ft | 424 kts | 276° |
| 2026-04-20 19:14 | -25.28804 | -57.17241 | 35918 ft | 426 kts | 276° |
| 2026-04-20 19:15 | -25.27995 | -57.23731 | 35917 ft | 427 kts | 276° |
| 2026-04-20 19:15 | -25.27183 | -57.30238 | 35917 ft | 427 kts | 276° |
| 2026-04-20 19:16 | -25.26367 | -57.36740 | 35902 ft | 428 kts | 276° |
| 2026-04-20 19:16 | -25.25547 | -57.43246 | 35907 ft | 427 kts | 276° |
| 2026-04-20 19:17 | -25.24732 | -57.49700 | 35912 ft | 426 kts | 276° |
| 2026-04-20 19:17 | -25.23983 | -57.56197 | 35910 ft | 425 kts | 274° |
| 2026-04-20 19:18 | -25.23448 | -57.62689 | 35916 ft | 424 kts | 274° |
| 2026-04-20 19:18 | -25.22921 | -57.69181 | 35913 ft | 423 kts | 274° |
| 2026-04-20 19:19 | -25.22370 | -57.75596 | 35917 ft | 422 kts | 274° |
| 2026-04-20 19:19 | -25.21800 | -57.82063 | 35907 ft | 422 kts | 274° |
| 2026-04-20 19:20 | -25.21225 | -57.88520 | 35905 ft | 423 kts | 274° |
| 2026-04-20 19:20 | -25.20648 | -57.94980 | 35910 ft | 423 kts | 274° |
| 2026-04-20 19:21 | -25.20067 | -58.01440 | 35908 ft | 423 kts | 274° |
| 2026-04-20 19:21 | -25.19472 | -58.07871 | 35922 ft | 423 kts | 274° |
| 2026-04-20 19:22 | -25.18885 | -58.14316 | 35887 ft | 421 kts | 275° |
| 2026-04-20 19:22 | -25.18313 | -58.20744 | 35901 ft | 421 kts | 275° |
| 2026-04-20 19:23 | -25.17687 | -58.27185 | 35905 ft | 423 kts | 275° |
| 2026-04-20 19:23 | -25.17044 | -58.33644 | 35911 ft | 423 kts | 275° |
| 2026-04-20 19:24 | -25.16405 | -58.40122 | 35903 ft | 425 kts | 275° |
| 2026-04-20 19:24 | -25.15765 | -58.46612 | 35899 ft | 426 kts | 275° |
| 2026-04-20 19:25 | -25.15123 | -58.53115 | 35897 ft | 426 kts | 275° |
| 2026-04-20 19:25 | -25.14477 | -58.59623 | 35890 ft | 427 kts | 275° |
| 2026-04-20 19:26 | -25.13832 | -58.66090 | 35887 ft | 426 kts | 275° |
| 2026-04-20 19:26 | -25.13184 | -58.72585 | 35887 ft | 426 kts | 275° |
| 2026-04-20 19:27 | -25.12528 | -58.79079 | 35897 ft | 426 kts | 275° |
| 2026-04-20 19:27 | -25.11871 | -58.85572 | 35883 ft | 426 kts | 275° |
| 2026-04-20 19:28 | -25.11212 | -58.92064 | 35880 ft | 425 kts | 275° |
| 2026-04-20 19:28 | -25.10552 | -58.98536 | 35879 ft | 424 kts | 275° |
| 2026-04-20 19:29 | -25.09890 | -59.04998 | 35881 ft | 423 kts | 275° |
| 2026-04-20 19:29 | -25.09232 | -59.11405 | 35880 ft | 422 kts | 275° |
| 2026-04-20 19:30 | -25.08567 | -59.17842 | 35864 ft | 422 kts | 275° |
| 2026-04-20 19:30 | -25.07900 | -59.24270 | 35884 ft | 422 kts | 275° |
| 2026-04-20 19:31 | -25.07229 | -59.30706 | 35882 ft | 423 kts | 275° |
| 2026-04-20 19:31 | -25.06555 | -59.37159 | 35880 ft | 423 kts | 275° |
| 2026-04-20 19:32 | -25.05879 | -59.43602 | 35880 ft | 423 kts | 276° |
| 2026-04-20 19:32 | -25.05199 | -59.50051 | 35883 ft | 423 kts | 276° |
| 2026-04-20 19:33 | -25.04516 | -59.56496 | 35882 ft | 423 kts | 276° |
| 2026-04-20 19:33 | -25.03830 | -59.62951 | 35884 ft | 423 kts | 276° |
| 2026-04-20 19:34 | -25.03143 | -59.69361 | 35881 ft | 424 kts | 276° |
| 2026-04-20 19:34 | -25.02493 | -59.75821 | 35878 ft | 423 kts | 275° |
| 2026-04-20 19:35 | -25.01874 | -59.82281 | 35879 ft | 423 kts | 275° |
| 2026-04-20 19:35 | -25.01250 | -59.88728 | 35883 ft | 423 kts | 275° |
| 2026-04-20 19:36 | -25.00619 | -59.95178 | 35880 ft | 423 kts | 275° |
| 2026-04-20 19:36 | -24.99983 | -60.01628 | 35881 ft | 423 kts | 275° |
| 2026-04-20 19:37 | -24.99345 | -60.08062 | 35880 ft | 422 kts | 275° |
| 2026-04-20 19:37 | -24.98705 | -60.14481 | 35872 ft | 421 kts | 275° |
| 2026-04-20 19:38 | -24.98066 | -60.20884 | 35866 ft | 420 kts | 275° |
| 2026-04-20 19:38 | -24.97428 | -60.27232 | 35876 ft | 419 kts | 275° |
| 2026-04-20 19:39 | -24.96787 | -60.33593 | 35871 ft | 417 kts | 275° |
| 2026-04-20 19:39 | -24.96144 | -60.39940 | 35871 ft | 416 kts | 275° |
| 2026-04-20 19:40 | -24.95499 | -60.46278 | 35862 ft | 416 kts | 275° |
| 2026-04-20 19:40 | -24.94853 | -60.52607 | 35871 ft | 416 kts | 275° |
| 2026-04-20 19:41 | -24.94204 | -60.58932 | 35874 ft | 415 kts | 276° |
| 2026-04-20 19:41 | -24.93556 | -60.65224 | 35884 ft | 415 kts | 275° |
| 2026-04-20 19:42 | -24.92902 | -60.71541 | 35899 ft | 415 kts | 275° |
| 2026-04-20 19:42 | -24.92246 | -60.77859 | 35901 ft | 415 kts | 275° |
| 2026-04-20 19:43 | -24.91585 | -60.84190 | 35897 ft | 416 kts | 276° |
| 2026-04-20 19:43 | -24.90919 | -60.90526 | 35898 ft | 416 kts | 276° |
| 2026-04-20 19:44 | -24.90252 | -60.96855 | 35897 ft | 416 kts | 276° |
| 2026-04-20 19:44 | -24.89582 | -61.03182 | 35897 ft | 416 kts | 276° |
| 2026-04-20 19:45 | -24.88909 | -61.09515 | 35896 ft | 416 kts | 276° |
| 2026-04-20 19:45 | -24.88235 | -61.15839 | 35898 ft | 415 kts | 276° |
| 2026-04-20 19:46 | -24.87559 | -61.22147 | 35894 ft | 414 kts | 276° |
| 2026-04-20 19:46 | -24.86888 | -61.28401 | 35900 ft | 413 kts | 276° |
| 2026-04-20 19:47 | -24.86209 | -61.34683 | 35898 ft | 413 kts | 276° |
| 2026-04-20 19:47 | -24.85642 | -61.39901 | 35901 ft | 412 kts | 276° |
| 2026-04-20 19:48 | -24.84962 | -61.46163 | 35904 ft | 412 kts | 276° |
| 2026-04-20 19:48 | -24.84279 | -61.52425 | 35907 ft | 411 kts | 276° |
| 2026-04-20 19:49 | -24.83593 | -61.58681 | 35909 ft | 411 kts | 276° |
| 2026-04-20 19:49 | -24.82907 | -61.64919 | 35913 ft | 410 kts | 276° |
| 2026-04-20 19:50 | -24.82225 | -61.71106 | 35913 ft | 410 kts | 276° |
| 2026-04-20 19:50 | -24.81361 | -61.77338 | 35901 ft | 410 kts | 283° |
| 2026-04-20 19:51 | -24.79810 | -61.83341 | 35906 ft | 411 kts | 284° |
| 2026-04-20 19:51 | -24.78287 | -61.89431 | 35908 ft | 410 kts | 283° |
| 2026-04-20 19:52 | -24.77135 | -61.95520 | 35922 ft | 408 kts | 276° |
| 2026-04-20 19:52 | -24.76497 | -62.01722 | 35921 ft | 407 kts | 275° |
| 2026-04-20 19:53 | -24.75846 | -62.07912 | 35919 ft | 407 kts | 276° |
| 2026-04-20 19:53 | -24.75170 | -62.14083 | 35916 ft | 406 kts | 276° |
| 2026-04-20 19:54 | -24.74481 | -62.20254 | 35914 ft | 406 kts | 276° |
| 2026-04-20 19:54 | -24.73790 | -62.26407 | 35917 ft | 405 kts | 276° |
| 2026-04-20 19:55 | -24.73099 | -62.32555 | 35919 ft | 404 kts | 276° |
| 2026-04-20 19:55 | -24.72405 | -62.38692 | 35926 ft | 404 kts | 276° |
| 2026-04-20 19:56 | -24.71711 | -62.44817 | 35926 ft | 404 kts | 276° |
| 2026-04-20 19:56 | -24.71018 | -62.50910 | 35928 ft | 404 kts | 276° |
| 2026-04-20 19:57 | -24.70318 | -62.57043 | 35926 ft | 404 kts | 276° |
| 2026-04-20 19:57 | -24.69618 | -62.63176 | 35925 ft | 404 kts | 276° |
| 2026-04-20 19:58 | -24.68918 | -62.69309 | 35924 ft | 404 kts | 276° |
| 2026-04-20 19:58 | -24.68213 | -62.75436 | 35935 ft | 404 kts | 276° |
| 2026-04-20 19:59 | -24.67510 | -62.81527 | 35933 ft | 404 kts | 276° |
| 2026-04-20 19:59 | -24.66801 | -62.87663 | 35938 ft | 404 kts | 276° |
| 2026-04-20 20:00 | -24.66088 | -62.93801 | 35935 ft | 404 kts | 276° |
| 2026-04-20 20:00 | -24.65372 | -62.99941 | 35935 ft | 405 kts | 276° |
| 2026-04-20 20:01 | -24.64655 | -63.06086 | 35935 ft | 405 kts | 276° |
| 2026-04-20 20:01 | -24.63931 | -63.12229 | 35935 ft | 405 kts | 276° |
| 2026-04-20 20:02 | -24.63214 | -63.18328 | 35945 ft | 405 kts | 276° |
| 2026-04-20 20:02 | -24.62489 | -63.24468 | 35942 ft | 404 kts | 276° |
| 2026-04-20 20:03 | -24.61765 | -63.30597 | 35944 ft | 404 kts | 276° |
| 2026-04-20 20:03 | -24.61043 | -63.36720 | 35946 ft | 404 kts | 276° |
| 2026-04-20 20:04 | -24.60319 | -63.42833 | 35944 ft | 403 kts | 276° |
| 2026-04-20 20:04 | -24.59594 | -63.48946 | 35948 ft | 403 kts | 276° |
| 2026-04-20 20:05 | -24.58867 | -63.55049 | 35942 ft | 403 kts | 276° |
| 2026-04-20 20:05 | -24.58138 | -63.61140 | 35944 ft | 402 kts | 276° |
| 2026-04-20 20:06 | -24.57406 | -63.67227 | 35944 ft | 401 kts | 276° |
| 2026-04-20 20:06 | -24.56675 | -63.73304 | 35954 ft | 401 kts | 276° |
| 2026-04-20 20:07 | -24.55947 | -63.79322 | 35947 ft | 400 kts | 276° |
| 2026-04-20 20:07 | -24.55213 | -63.85386 | 35956 ft | 400 kts | 276° |
| 2026-04-20 20:08 | -24.54474 | -63.91460 | 35956 ft | 400 kts | 276° |
| 2026-04-20 20:08 | -24.53730 | -63.97560 | 35591 ft | 404 kts | 276° |
| 2026-04-20 20:08 | -24.53356 | -64.00614 | 35344 ft | 403 kts | 276° |
| 2026-04-20 20:09 | -24.52983 | -64.03655 | 35099 ft | 401 kts | 276° |
| 2026-04-20 20:09 | -24.52615 | -64.06657 | 34854 ft | 402 kts | 276° |
| 2026-04-20 20:09 | -24.52244 | -64.09699 | 34518 ft | 401 kts | 276° |
| 2026-04-20 20:09 | -24.51876 | -64.12727 | 34046 ft | 396 kts | 276° |
| 2026-04-20 20:10 | -24.51513 | -64.15724 | 33515 ft | 394 kts | 276° |
| 2026-04-20 20:10 | -24.51153 | -64.18688 | 33059 ft | 390 kts | 276° |
| 2026-04-20 20:10 | -24.50796 | -64.21621 | 32589 ft | 386 kts | 276° |
| 2026-04-20 20:10 | -24.50442 | -64.24526 | 32127 ft | 383 kts | 276° |
| 2026-04-20 20:11 | -24.50090 | -64.27415 | 31655 ft | 379 kts | 276° |
| 2026-04-20 20:11 | -24.49741 | -64.30272 | 31209 ft | 376 kts | 276° |
| 2026-04-20 20:11 | -24.49394 | -64.33110 | 30757 ft | 373 kts | 276° |
| 2026-04-20 20:11 | -24.49048 | -64.35928 | 30304 ft | 371 kts | 277° |
| 2026-04-20 20:12 | -24.48705 | -64.38729 | 29860 ft | 369 kts | 277° |
| 2026-04-20 20:12 | -24.48363 | -64.41508 | 29408 ft | 366 kts | 277° |
| 2026-04-20 20:12 | -24.48028 | -64.44229 | 28962 ft | 363 kts | 277° |
| 2026-04-20 20:13 | -24.47320 | -64.49717 | 28070 ft | 359 kts | 278° |
| 2026-04-20 20:13 | -24.46965 | -64.52384 | 27599 ft | 357 kts | 278° |
| 2026-04-20 20:13 | -24.46627 | -64.55071 | 27184 ft | 354 kts | 274° |
| 2026-04-20 20:13 | -24.46830 | -64.57752 | 26719 ft | 354 kts | 258° |
| 2026-04-20 20:14 | -24.47683 | -64.60287 | 26301 ft | 356 kts | 245° |
| 2026-04-20 20:14 | -24.48991 | -64.62603 | 25891 ft | 356 kts | 240° |
| 2026-04-20 20:14 | -24.50362 | -64.64865 | 25449 ft | 355 kts | 240° |
| 2026-04-20 20:14 | -24.51732 | -64.67115 | 25015 ft | 354 kts | 240° |
| 2026-04-20 20:15 | -24.53088 | -64.69366 | 24582 ft | 352 kts | 240° |
| 2026-04-20 20:15 | -24.54429 | -64.71614 | 24156 ft | 351 kts | 240° |
| 2026-04-20 20:15 | -24.55758 | -64.73859 | 23746 ft | 351 kts | 240° |
| 2026-04-20 20:15 | -24.57085 | -64.76107 | 23316 ft | 351 kts | 240° |
| 2026-04-20 20:16 | -24.58424 | -64.78378 | 22891 ft | 356 kts | 240° |
| 2026-04-20 20:16 | -24.59772 | -64.80687 | 22474 ft | 362 kts | 241° |
| 2026-04-20 20:16 | -24.61102 | -64.83048 | 22028 ft | 363 kts | 242° |
| 2026-04-20 20:16 | -24.62420 | -64.85407 | 21587 ft | 361 kts | 242° |
| 2026-04-20 20:17 | -24.63732 | -64.87755 | 21154 ft | 359 kts | 242° |
| 2026-04-20 20:17 | -24.65023 | -64.90060 | 20684 ft | 358 kts | 242° |
| 2026-04-20 20:17 | -24.66331 | -64.92392 | 20254 ft | 356 kts | 242° |
| 2026-04-20 20:17 | -24.67625 | -64.94698 | 19830 ft | 353 kts | 242° |
| 2026-04-20 20:18 | -24.68910 | -64.96989 | 19411 ft | 350 kts | 242° |
| 2026-04-20 20:18 | -24.70181 | -64.99256 | 19006 ft | 347 kts | 242° |
| 2026-04-20 20:18 | -24.71445 | -65.01512 | 18601 ft | 345 kts | 242° |
| 2026-04-20 20:18 | -24.72640 | -65.03786 | 18199 ft | 340 kts | 250° |
| 2026-04-20 20:19 | -24.73120 | -65.06236 | 17847 ft | 329 kts | 271° |
| 2026-04-20 20:19 | -24.72783 | -65.08685 | 17453 ft | 323 kts | 290° |
| 2026-04-20 20:19 | -24.71781 | -65.10878 | 17065 ft | 320 kts | 304° |
| 2026-04-20 20:19 | -24.70290 | -65.12676 | 16660 ft | 320 kts | 321° |
| 2026-04-20 20:20 | -24.68415 | -65.13991 | 16297 ft | 319 kts | 328° |
| 2026-04-20 20:20 | -24.66489 | -65.15192 | 15889 ft | 318 kts | 329° |
| 2026-04-20 20:20 | -24.64571 | -65.16367 | 15503 ft | 316 kts | 329° |
| 2026-04-20 20:20 | -24.62649 | -65.17547 | 15118 ft | 314 kts | 329° |
| 2026-04-20 20:21 | -24.60751 | -65.18719 | 14740 ft | 313 kts | 329° |
| 2026-04-20 20:21 | -24.58861 | -65.19893 | 14353 ft | 311 kts | 329° |
| 2026-04-20 20:21 | -24.56977 | -65.21067 | 13962 ft | 311 kts | 329° |
| 2026-04-20 20:21 | -24.55099 | -65.22239 | 13587 ft | 310 kts | 329° |
| 2026-04-20 20:22 | -24.53861 | -65.23013 | 13411 ft | 307 kts | 329° |
| 2026-04-20 20:22 | -24.51451 | -65.24519 | 13235 ft | 291 kts | 329° |
| 2026-04-20 20:22 | -24.49713 | -65.25606 | 13093 ft | 283 kts | 329° |
| 2026-04-20 20:22 | -24.48049 | -65.26646 | 12974 ft | 274 kts | 329° |
| 2026-04-20 20:23 | -24.46406 | -65.27674 | 12720 ft | 271 kts | 329° |
| 2026-04-20 20:23 | -24.44772 | -65.28696 | 12453 ft | 269 kts | 329° |
| 2026-04-20 20:23 | -24.43145 | -65.29714 | 12172 ft | 269 kts | 329° |
| 2026-04-20 20:23 | -24.41538 | -65.30717 | 12023 ft | 262 kts | 329° |
| 2026-04-20 20:24 | -24.39970 | -65.31696 | 11904 ft | 255 kts | 330° |
| 2026-04-20 20:24 | -24.38444 | -65.32648 | 11782 ft | 248 kts | 330° |
| 2026-04-20 20:24 | -24.36956 | -65.33576 | 11673 ft | 245 kts | 330° |
| 2026-04-20 20:24 | -24.35410 | -65.34413 | 11458 ft | 253 kts | 340° |
| 2026-04-20 20:25 | -24.33705 | -65.34964 | 11259 ft | 257 kts | 344° |
| 2026-04-20 20:25 | -24.31965 | -65.35466 | 10974 ft | 261 kts | 345° |
| 2026-04-20 20:25 | -24.30211 | -65.35987 | 10682 ft | 261 kts | 344° |
| 2026-04-20 20:25 | -24.28457 | -65.36528 | 10394 ft | 261 kts | 344° |
| 2026-04-20 20:26 | -24.26715 | -65.37075 | 10126 ft | 260 kts | 344° |
| 2026-04-20 20:26 | -24.24975 | -65.37626 | 9834 ft | 261 kts | 344° |
| 2026-04-20 20:26 | -24.23221 | -65.38141 | 9550 ft | 261 kts | 352° |
| 2026-04-20 20:26 | -24.21451 | -65.37891 | 9282 ft | 258 kts | 27° |
| 2026-04-20 20:27 | -24.20116 | -65.36634 | 9079 ft | 255 kts | 54° |
| 2026-04-20 20:27 | -24.19348 | -65.34892 | 8817 ft | 255 kts | 73° |
| 2026-04-20 20:27 | -24.18921 | -65.33015 | 8555 ft | 253 kts | 77° |
| 2026-04-20 20:27 | -24.18621 | -65.31153 | 8276 ft | 252 kts | 88° |
| 2026-04-20 20:28 | -24.18798 | -65.29877 | 8064 ft | 252 kts | 108° |
| 2026-04-20 20:28 | -24.19827 | -65.27631 | 7687 ft | 247 kts | 119° |
| 2026-04-20 20:28 | -24.20692 | -65.26029 | 7405 ft | 240 kts | 119° |
| 2026-04-20 20:28 | -24.21526 | -65.24476 | 7129 ft | 234 kts | 119° |
| 2026-04-20 20:29 | -24.22338 | -65.22959 | 6822 ft | 226 kts | 122° |
| 2026-04-20 20:29 | -24.23279 | -65.21622 | 6547 ft | 214 kts | 129° |
| 2026-04-20 20:29 | -24.24229 | -65.20426 | 6304 ft | 203 kts | 130° |
| 2026-04-20 20:29 | -24.25133 | -65.19280 | 6051 ft | 194 kts | 129° |
| 2026-04-20 20:30 | -24.25999 | -65.18183 | 5832 ft | 186 kts | 132° |
| 2026-04-20 20:30 | -24.27020 | -65.17384 | 5586 ft | 175 kts | 153° |
| 2026-04-20 20:30 | -24.28042 | -65.16797 | 5409 ft | 160 kts | 149° |
| 2026-04-20 20:30 | -24.29012 | -65.16208 | 5229 ft | 160 kts | 150° |
| 2026-04-20 20:31 | -24.29985 | -65.15603 | 5079 ft | 162 kts | 150° |
| 2026-04-20 20:31 | -24.30955 | -65.14994 | 4847 ft | 163 kts | 150° |
| 2026-04-20 20:31 | -24.31937 | -65.14381 | 4607 ft | 161 kts | 150° |
| 2026-04-20 20:31 | -24.32893 | -65.13780 | 4357 ft | 156 kts | 151° |
| 2026-04-20 20:32 | -24.33840 | -65.13191 | 4170 ft | 158 kts | 153° |
| 2026-04-20 20:32 | -24.34807 | -65.12593 | 3914 ft | 163 kts | 151° |
| 2026-04-20 20:32 | -24.35780 | -65.11984 | 3661 ft | 157 kts | 152° |
| 2026-04-20 20:32 | -24.36726 | -65.11385 | 3372 ft | 157 kts | 151° |
| 2026-04-20 20:33 | -24.37668 | -65.10785 | 3145 ft | 156 kts | 151° |
| 2026-04-20 20:33 | -24.38606 | -65.10201 | 2999 ft | 149 kts | 151° |
| 2026-04-20 20:33 | -24.39189 | -65.09830 | 2998 ft | 42 kts | 150° |
| 2026-04-20 20:33 | -24.39313 | -65.09752 | 2998 ft | 30 kts | 150° |
| 2026-04-20 20:34 | -24.39487 | -65.09642 | 2997 ft | 25 kts | 150° |
| 2026-04-20 20:34 | -24.39580 | -65.09591 | 2998 ft | 4 kts | 101° |
| 2026-04-20 20:34 | -24.39575 | -65.09579 | 2998 ft | 2 kts | 50° |
| 2026-04-20 20:34 | -24.39561 | -65.09577 | 2998 ft | 3 kts | 348° |
| 2026-04-20 20:35 | -24.39529 | -65.09613 | 2998 ft | 9 kts | 320° |
| 2026-04-20 20:35 | -24.39473 | -65.09650 | 2997 ft | 9 kts | 330° |
| 2026-04-20 20:35 | -24.39416 | -65.09686 | 2998 ft | 10 kts | 330° |
| 2026-04-20 20:35 | -24.39347 | -65.09728 | 2998 ft | 13 kts | 330° |
| 2026-04-20 20:36 | -24.39261 | -65.09782 | 2998 ft | 16 kts | 329° |
| 2026-04-20 20:36 | -24.39152 | -65.09833 | 2998 ft | 18 kts | 345° |
| 2026-04-20 20:36 | -24.39028 | -65.09854 | 2998 ft | 16 kts | 359° |
| 2026-04-20 20:36 | -24.38933 | -65.09832 | 2997 ft | 14 kts | 47° |
| 2026-04-20 20:37 | -24.38886 | -65.09744 | 2997 ft | 13 kts | 59° |
| 2026-04-20 20:37 | -24.38841 | -65.09660 | 2997 ft | 13 kts | 60° |
| 2026-04-20 20:37 | -24.38797 | -65.09578 | 2997 ft | 12 kts | 60° |
| 2026-04-20 20:37 | -24.38758 | -65.09503 | 2997 ft | 9 kts | 60° |
| 2026-04-20 20:38 | -24.38712 | -65.09473 | 2997 ft | 9 kts | 345° |
| 2026-04-20 20:38 | -24.38662 | -65.09504 | 2997 ft | 6 kts | 329° |
| 2026-04-20 20:38 | -24.38638 | -65.09490 | 2997 ft | 4 kts | 59° |
| 2026-04-20 20:38 | -24.38626 | -65.09469 | 2997 ft | 2 kts | 60° |
| 2026-04-20 20:39 | -24.38626 | -65.09467 | 2997 ft | 0 kts | 60° |